Etusivu
METAR-TAF:

METAR-TAF

Lentoasemat :

Bozeman, Montana, Yhdysvallat

Leveyspiiri: 45-47-17N, Pituuspiiri: 111-09-39W, korkeus merenpinnasta: 1364 m

Tämänhetkinen sää

Tämä raportti tehtiin 1 tunti ja 4 minuuttia sitten, kello 02.56 UTC
tyyntä
Lämpötila -3°C
Kosteus 63%
Ilmanpaine 1021 hPa
Näkyvyys: 16.1 km
selkeää

METAR: KBZN 160256Z 00000KT 10SM CLR M03/M09 A3014 RMK AO2 SLP240 T10281094 51014

Aika: 21:00 (04:00 UTC)

Sääennuste

Tämä raportti tehtiin 4 tuntia ja 40 minuuttia sitten, kello 23.20 UTC
Ennuste voimassa 16. päivästä klo 00 UTC - 17. päivään klo 06 UTC
Tuuli 5 kn eri suunnista
Näkyvyys: 10 km
Muutamia pilviä 10000 ft:n korkeudessa
Hajanaisia pilviä 20000 ft:n korkeudessa

TAF: KBZN 152320Z 1600/1706 VRB05KT P6SM FEW100 SCT200

Säähavainnot ja -ennusteet yli 4000 lentoasemalta (METAR- ja TAF-raportit).

Käytössä olevat sääasemat on merkitty karttaan keltaisilla ja punaisilla pisteillä.

Aseta hiiri pisteen päälle nähdäksesi sääaseman nimen.

Klikkaa sitten nähdäksesi säähavainnot ja -ennusteet.

Kartan vaihtaminen: klikkaa mustalla rastilla varustettuja vihreitä pisteitä, niin voit zoomata sisään; viivalla varustettua vihreää pistettä, niin voit zoomata ulos tai vihreitä nuolia, niin pääset viereisille kartoille.


METAR-TAF: